createdAt,value
2018-12-12T00:01:02.547Z,2.00
2018-12-12T00:03:29.900Z,2.70
2018-12-12T00:05:57.059Z,2.93
2018-12-12T00:08:24.099Z,2.83
2018-12-12T00:10:51.162Z,3.17
2018-12-12T00:13:18.263Z,2.67
2018-12-12T00:15:45.409Z,2.57
2018-12-12T00:18:13.081Z,2.63
2018-12-12T00:20:40.258Z,3.00
2018-12-12T00:23:07.302Z,2.50
2018-12-12T00:25:34.322Z,2.60
2018-12-12T00:28:01.351Z,2.30
2018-12-12T00:30:28.518Z,2.10
2018-12-12T00:32:55.651Z,2.20
2018-12-12T00:35:22.715Z,2.50
2018-12-12T00:37:49.706Z,2.20
2018-12-12T00:40:16.812Z,3.00
2018-12-12T00:42:43.966Z,2.43
2018-12-12T00:45:11.790Z,2.40
2018-12-12T00:47:39.371Z,2.00
2018-12-12T00:50:06.554Z,2.53
2018-12-12T00:52:33.584Z,3.87
2018-12-12T00:57:37.126Z,2.30
2018-12-12T01:00:05.583Z,2.40
2018-12-12T01:02:33.019Z,2.47
2018-12-12T01:05:00.202Z,1.93
2018-12-12T01:07:29.012Z,2.40
2018-12-12T01:09:56.597Z,2.10
2018-12-12T01:12:24.818Z,2.93
2018-12-12T01:14:53.276Z,2.90
2018-12-12T01:17:22.108Z,2.50
2018-12-12T01:19:49.332Z,3.13
2018-12-12T01:22:17.301Z,2.37
2018-12-12T01:24:44.364Z,2.50
2018-12-12T01:27:21.002Z,2.30
2018-12-12T01:29:57.121Z,2.27
2018-12-12T01:32:24.764Z,1.93
2018-12-12T01:34:57.545Z,2.30
2018-12-12T01:39:56.833Z,2.30
2018-12-12T01:42:23.940Z,2.20
2018-12-12T01:47:23.857Z,3.30
2018-12-12T01:49:50.852Z,2.67
2018-12-12T01:52:29.897Z,2.87
2018-12-12T01:55:00.512Z,2.50
2018-12-12T01:57:27.511Z,3.37
2018-12-12T01:59:54.800Z,2.63
2018-12-12T02:02:21.908Z,2.80
2018-12-12T02:04:59.748Z,2.33
2018-12-12T02:07:31.540Z,2.73
2018-12-12T02:09:58.518Z,2.53
2018-12-12T02:12:26.686Z,2.30
2018-12-12T02:14:53.859Z,2.53
2018-12-12T02:17:29.099Z,2.40
2018-12-12T02:19:56.886Z,3.13
2018-12-12T02:22:23.927Z,2.10
2018-12-12T02:24:51.515Z,2.87
2018-12-12T02:27:18.522Z,2.00
2018-12-12T02:29:45.523Z,2.33
2018-12-12T02:32:12.519Z,2.57
2018-12-12T02:34:39.557Z,2.50
2018-12-12T02:37:06.632Z,2.90
2018-12-12T02:39:33.642Z,3.03
2018-12-12T02:42:00.602Z,2.57
2018-12-12T02:44:27.628Z,2.90
2018-12-12T02:46:54.614Z,3.30
2018-12-12T02:49:23.303Z,2.90
2018-12-12T02:51:50.309Z,3.40
2018-12-12T02:54:17.321Z,3.07
2018-12-12T02:56:44.438Z,3.90
2018-12-12T02:59:11.439Z,2.93
2018-12-12T03:01:38.441Z,3.37
2018-12-12T03:04:05.534Z,2.70
2018-12-12T03:06:32.555Z,2.80
2018-12-12T03:09:08.319Z,2.83
2018-12-12T03:11:35.465Z,3.53
2018-12-12T03:14:02.487Z,2.73
2018-12-12T03:16:29.705Z,3.07
2018-12-12T03:18:56.721Z,2.80
2018-12-12T03:21:23.793Z,3.00
2018-12-12T03:23:50.887Z,3.23
2018-12-12T03:26:18.069Z,2.93
2018-12-12T03:28:45.010Z,2.90
2018-12-12T03:31:12.035Z,2.87
2018-12-12T03:33:39.010Z,2.63
2018-12-12T03:36:05.978Z,2.60
2018-12-12T03:38:32.972Z,2.57
2018-12-12T03:40:59.976Z,2.50
2018-12-12T03:43:26.876Z,3.00
2018-12-12T03:45:54.984Z,2.17
2018-12-12T03:48:21.964Z,3.20
2018-12-12T03:50:49.538Z,3.27
2018-12-12T03:53:16.565Z,3.23
2018-12-12T03:55:43.585Z,3.10
2018-12-12T03:58:10.530Z,2.90
2018-12-12T04:00:37.535Z,3.27
2018-12-12T04:03:04.657Z,3.03
2018-12-12T04:05:31.583Z,3.00
2018-12-12T04:07:58.632Z,3.53
2018-12-12T04:10:25.637Z,3.10
2018-12-12T04:12:52.612Z,3.13
2018-12-12T04:15:19.629Z,3.40
2018-12-12T04:17:46.753Z,3.50
2018-12-12T04:20:14.395Z,3.40
2018-12-12T04:22:41.385Z,3.20
2018-12-12T04:25:08.478Z,3.20
2018-12-12T04:27:35.989Z,3.83
2018-12-12T04:30:03.555Z,4.20
2018-12-12T04:32:30.697Z,3.93
2018-12-12T04:34:57.695Z,4.10
2018-12-12T04:37:24.626Z,5.37
2018-12-12T04:39:51.804Z,4.57
2018-12-12T04:42:18.945Z,5.20
2018-12-12T04:44:46.806Z,5.47
2018-12-12T04:47:15.874Z,4.90
2018-12-12T04:49:42.892Z,5.10
2018-12-12T04:52:10.658Z,5.30
2018-12-12T04:54:37.609Z,5.97
2018-12-12T04:57:04.571Z,6.30
2018-12-12T04:59:31.550Z,5.70
2018-12-12T05:01:58.544Z,7.00
2018-12-12T05:04:25.507Z,6.00
2018-12-12T05:06:52.592Z,6.83
2018-12-12T05:09:19.585Z,6.80
2018-12-12T05:11:46.527Z,6.47
2018-12-12T05:14:13.505Z,7.57
2018-12-12T05:16:40.474Z,7.50
2018-12-12T05:19:07.533Z,7.90
2018-12-12T05:21:34.532Z,8.60
2018-12-12T05:24:01.657Z,8.70
2018-12-12T05:26:28.633Z,9.13
2018-12-12T05:28:55.603Z,7.83
2018-12-12T05:31:22.529Z,8.80
2018-12-12T05:33:49.614Z,8.70
2018-12-12T05:36:16.646Z,9.00
2018-12-12T05:38:43.714Z,8.63
2018-12-12T05:41:12.064Z,8.87
2018-12-12T05:43:39.085Z,8.23
2018-12-12T05:46:06.007Z,8.53
2018-12-12T05:48:32.949Z,7.83
2018-12-12T05:50:59.873Z,8.83
2018-12-12T05:53:26.952Z,9.20
2018-12-12T05:55:53.895Z,8.80
2018-12-12T05:58:20.823Z,9.33
2018-12-12T06:00:47.787Z,8.60
2018-12-12T06:03:14.739Z,9.03
2018-12-12T06:05:41.749Z,9.13
2018-12-12T06:08:08.719Z,8.13
2018-12-12T06:10:35.654Z,8.53
2018-12-12T06:13:02.609Z,7.70
2018-12-12T06:15:29.639Z,9.10
2018-12-12T06:17:56.628Z,8.27
2018-12-12T06:20:23.568Z,8.73
2018-12-12T06:22:50.659Z,8.63
2018-12-12T06:25:17.674Z,8.47
2018-12-12T06:27:44.603Z,8.83
2018-12-12T06:30:11.665Z,8.47
2018-12-12T06:32:38.601Z,8.93
2018-12-12T06:35:06.244Z,8.67
2018-12-12T06:37:33.358Z,9.00
2018-12-12T06:40:00.351Z,8.83
2018-12-12T06:42:27.385Z,7.90
2018-12-12T06:44:54.376Z,6.63
2018-12-12T06:47:21.379Z,6.63
2018-12-12T06:49:48.335Z,6.17
2018-12-12T06:52:15.341Z,6.00
2018-12-12T06:54:42.352Z,6.87
2018-12-12T06:57:09.366Z,6.77
2018-12-12T06:59:36.321Z,7.07
2018-12-12T07:02:03.291Z,5.67
2018-12-12T07:04:30.374Z,5.80
2018-12-12T07:06:57.453Z,5.70
2018-12-12T07:09:24.407Z,4.80
2018-12-12T07:11:51.421Z,5.30
2018-12-12T07:14:19.606Z,4.77
2018-12-12T07:16:46.608Z,5.60
2018-12-12T07:19:13.558Z,5.47
2018-12-12T07:21:41.203Z,5.70
2018-12-12T07:24:08.932Z,5.83
2018-12-12T07:26:36.056Z,5.43
2018-12-12T07:29:03.121Z,5.40
2018-12-12T07:31:30.241Z,4.83
2018-12-12T07:34:00.987Z,5.83
2018-12-12T07:36:24.315Z,4.23
2018-12-12T07:43:46.248Z,5.60
2018-12-12T07:46:13.335Z,5.03
2018-12-12T07:48:40.362Z,5.90
2018-12-12T07:51:07.594Z,5.37
2018-12-12T07:53:34.562Z,5.13
2018-12-12T07:56:01.692Z,5.30
2018-12-12T07:58:28.686Z,5.60
2018-12-12T08:00:55.758Z,5.47
2018-12-12T08:03:22.713Z,5.80
2018-12-12T08:05:49.782Z,5.37
2018-12-12T08:08:16.802Z,5.33
2018-12-12T08:10:44.356Z,5.40
2018-12-12T08:13:11.453Z,5.77
2018-12-12T08:15:44.295Z,5.07
2018-12-12T08:18:11.454Z,5.37
2018-12-12T08:20:38.417Z,5.53
2018-12-12T08:23:05.391Z,8.77
2018-12-12T08:25:32.485Z,6.97
2018-12-12T08:27:59.485Z,6.80
2018-12-12T08:30:26.461Z,5.43
2018-12-12T08:32:54.069Z,6.13
2018-12-12T08:35:24.161Z,5.93
2018-12-12T08:37:51.474Z,6.00
2018-12-12T08:40:19.079Z,5.70
2018-12-12T08:42:46.336Z,5.50
2018-12-12T08:45:13.642Z,6.97
2018-12-12T08:47:40.788Z,6.13
2018-12-12T08:50:07.986Z,4.90
2018-12-12T08:52:37.359Z,5.90
2018-12-12T08:55:04.573Z,5.23
2018-12-12T08:57:31.760Z,6.07
2018-12-12T08:59:58.745Z,6.77
2018-12-12T09:02:25.683Z,6.97
2018-12-12T09:04:52.603Z,5.47
2018-12-12T09:07:19.639Z,6.13
2018-12-12T09:09:46.615Z,6.53
2018-12-12T09:12:13.731Z,5.83
2018-12-12T09:14:40.794Z,6.00
2018-12-12T09:17:09.741Z,7.13
2018-12-12T09:19:35.450Z,6.77
2018-12-12T09:22:02.614Z,6.63
2018-12-12T09:24:30.095Z,6.37
2018-12-12T09:26:57.033Z,6.83
2018-12-12T09:29:24.204Z,6.10
2018-12-12T09:31:51.233Z,6.83
2018-12-12T09:34:18.218Z,5.97
2018-12-12T09:36:45.206Z,6.53
2018-12-12T09:39:12.218Z,5.90
2018-12-12T09:41:39.218Z,6.90
2018-12-12T09:44:06.212Z,6.00
2018-12-12T09:46:44.690Z,6.03
2018-12-12T09:49:11.878Z,6.33
2018-12-12T09:51:38.822Z,7.17
2018-12-12T09:54:05.963Z,6.60
2018-12-12T09:56:33.009Z,6.57
2018-12-12T09:59:00.143Z,6.53
2018-12-12T10:01:27.167Z,5.53
2018-12-12T10:03:54.282Z,5.43
2018-12-12T10:06:23.528Z,6.40
2018-12-12T10:08:50.580Z,6.30
2018-12-12T10:11:18.277Z,5.63
2018-12-12T10:13:45.328Z,5.90
2018-12-12T10:16:12.414Z,5.93
2018-12-12T10:18:40.604Z,6.17
2018-12-12T10:21:13.285Z,5.77
2018-12-12T10:23:40.470Z,6.07
2018-12-12T10:26:07.484Z,4.93
2018-12-12T10:28:34.425Z,4.77
2018-12-12T10:31:01.425Z,4.90
2018-12-12T10:33:28.494Z,4.67
2018-12-12T10:35:55.513Z,4.77
2018-12-12T10:38:23.404Z,4.07
2018-12-12T10:40:50.357Z,3.77
2018-12-12T10:43:17.360Z,3.80
2018-12-12T10:45:44.448Z,4.00
2018-12-12T10:48:11.492Z,3.90
2018-12-12T10:50:38.469Z,3.97
2018-12-12T10:53:07.400Z,6.20
2018-12-12T10:55:34.457Z,4.23
2018-12-12T10:58:01.439Z,3.67
2018-12-12T11:00:28.490Z,4.43
2018-12-12T11:03:01.269Z,3.47
2018-12-12T11:05:28.335Z,3.67
2018-12-12T11:07:55.375Z,4.20
2018-12-12T11:10:22.560Z,4.20
2018-12-12T11:12:49.600Z,4.53
2018-12-12T11:15:16.602Z,5.13
2018-12-12T11:17:43.541Z,4.83
2018-12-12T11:20:10.613Z,4.40
2018-12-12T11:22:37.568Z,4.53
2018-12-12T11:25:05.403Z,4.07
2018-12-12T11:27:33.079Z,4.00
2018-12-12T11:30:00.098Z,5.17
2018-12-12T11:32:27.139Z,4.30
2018-12-12T11:34:54.267Z,4.07
2018-12-12T11:37:21.392Z,5.10
2018-12-12T11:39:48.649Z,4.40
2018-12-12T11:42:17.345Z,5.87
2018-12-12T11:44:45.094Z,4.57
2018-12-12T11:47:37.227Z,9.40
2018-12-12T11:50:06.169Z,5.87
2018-12-12T11:52:33.385Z,6.23
2018-12-12T11:55:00.403Z,5.13
2018-12-12T11:57:27.518Z,4.83
2018-12-12T11:59:54.517Z,5.93
2018-12-12T12:02:22.911Z,4.93
2018-12-12T12:04:50.949Z,6.50
2018-12-12T12:07:18.858Z,5.37
2018-12-12T12:09:45.930Z,5.33
2018-12-12T12:12:16.486Z,6.60
2018-12-12T12:14:44.460Z,5.87
2018-12-12T12:17:11.466Z,6.43
2018-12-12T12:19:40.203Z,5.50
2018-12-12T12:22:07.211Z,5.50
2018-12-12T12:24:34.276Z,5.90
2018-12-12T12:27:01.923Z,6.47
2018-12-12T12:29:29.065Z,6.70
2018-12-12T12:31:58.320Z,7.13
2018-12-12T12:34:25.294Z,6.00
2018-12-12T12:36:52.306Z,6.20
2018-12-12T12:39:19.351Z,5.70
2018-12-12T12:41:46.495Z,7.27
2018-12-12T12:44:14.561Z,6.50
2018-12-12T12:46:41.702Z,6.07
2018-12-12T12:49:08.858Z,6.50
2018-12-12T12:51:39.206Z,7.60
2018-12-12T12:54:06.431Z,6.80
2018-12-12T12:56:33.532Z,5.73
2018-12-12T12:59:00.942Z,6.50
2018-12-12T13:01:29.268Z,6.53
2018-12-12T13:03:57.928Z,4.97
2018-12-12T13:06:29.082Z,6.83
2018-12-12T13:08:58.001Z,5.83
2018-12-12T13:11:25.857Z,6.03
2018-12-12T13:13:52.993Z,5.70
2018-12-12T13:16:20.229Z,6.70
2018-12-12T13:18:48.726Z,7.17
2018-12-12T13:21:16.563Z,6.50
2018-12-12T13:23:43.617Z,6.50
2018-12-12T13:26:10.574Z,5.63
2018-12-12T13:28:37.607Z,5.60
2018-12-12T13:31:05.397Z,5.80
2018-12-12T13:33:33.816Z,5.23
2018-12-12T13:36:01.418Z,6.10
2018-12-12T13:38:28.446Z,6.17
2018-12-12T13:40:55.397Z,6.47
2018-12-12T13:43:22.348Z,6.20
2018-12-12T13:45:49.333Z,7.37
2018-12-12T13:48:16.306Z,5.83
2018-12-12T13:50:43.348Z,6.47
2018-12-12T13:53:10.357Z,6.37
2018-12-12T13:55:37.537Z,6.67
2018-12-12T13:58:04.937Z,6.43
2018-12-12T14:00:31.989Z,6.13
2018-12-12T14:02:58.932Z,6.33
2018-12-12T14:05:25.958Z,6.20
2018-12-12T14:07:52.926Z,6.23
2018-12-12T14:10:20.081Z,8.20
2018-12-12T14:12:47.197Z,6.60
2018-12-12T14:15:14.150Z,7.43
2018-12-12T14:17:41.272Z,7.80
2018-12-12T14:20:08.357Z,7.50
2018-12-12T14:22:35.346Z,7.50
2018-12-12T14:25:04.584Z,8.23
2018-12-12T14:27:31.663Z,7.33
2018-12-12T14:29:58.681Z,7.20
2018-12-12T14:32:25.662Z,7.07
2018-12-12T14:34:52.647Z,7.47
2018-12-12T14:37:19.621Z,7.37
2018-12-12T14:39:46.636Z,7.47
2018-12-12T14:42:13.614Z,8.30
2018-12-12T14:44:40.713Z,8.10
2018-12-12T14:47:07.787Z,8.23
2018-12-12T14:49:34.689Z,7.97
2018-12-12T14:52:01.683Z,8.13
2018-12-12T14:54:28.641Z,8.13
2018-12-12T14:56:55.652Z,9.33
2018-12-12T14:59:22.717Z,7.90
2018-12-12T15:01:50.332Z,8.30
2018-12-12T15:04:17.941Z,9.00
2018-12-12T15:06:45.612Z,7.80
2018-12-12T15:09:12.661Z,8.73
2018-12-12T15:11:39.710Z,9.10
2018-12-12T15:14:06.839Z,8.00
2018-12-12T15:16:41.544Z,8.53
2018-12-12T15:19:08.569Z,8.57
2018-12-12T15:21:35.542Z,8.47
2018-12-12T15:24:02.504Z,8.73
2018-12-12T15:26:32.045Z,8.80
2018-12-12T15:28:59.827Z,9.70
2018-12-12T15:31:26.802Z,9.50
2018-12-12T15:33:54.189Z,9.27
2018-12-12T15:36:21.135Z,9.47
2018-12-12T15:38:48.245Z,8.83
2018-12-12T15:41:15.269Z,9.00
2018-12-12T15:43:42.299Z,10.70
2018-12-12T15:46:09.320Z,10.17
2018-12-12T15:48:36.935Z,10.20
2018-12-12T15:51:03.955Z,9.73
2018-12-12T15:53:31.206Z,10.13
2018-12-12T15:55:58.970Z,9.57
2018-12-12T15:58:25.917Z,9.67
2018-12-12T16:00:52.929Z,10.33
2018-12-12T16:03:19.975Z,9.53
2018-12-12T16:05:46.956Z,9.87
2018-12-12T16:08:14.093Z,10.70
2018-12-12T16:10:40.985Z,10.37
2018-12-12T16:13:07.911Z,10.50
2018-12-12T16:15:35.370Z,10.13
2018-12-12T16:18:02.279Z,9.13
2018-12-12T16:20:29.298Z,10.83
2018-12-12T16:22:56.543Z,10.43
2018-12-12T16:25:23.666Z,10.77
2018-12-12T16:27:52.320Z,10.97
2018-12-12T16:30:19.158Z,10.77
2018-12-12T16:32:46.436Z,11.10
2018-12-12T16:35:13.705Z,11.43
2018-12-12T16:37:41.856Z,10.80
2018-12-12T16:40:09.029Z,11.73
2018-12-12T16:43:00.463Z,10.73
2018-12-12T16:45:27.930Z,12.43
2018-12-12T16:47:55.038Z,12.17
2018-12-12T16:50:22.235Z,10.53
2018-12-12T16:52:49.400Z,9.80
2018-12-12T16:55:16.687Z,11.87
2018-12-12T16:57:43.875Z,15.03
2018-12-12T17:00:11.055Z,10.50
2018-12-12T17:02:38.345Z,10.50
2018-12-12T17:05:05.544Z,10.43
2018-12-12T17:07:32.821Z,12.33
2018-12-12T17:10:00.042Z,9.50
2018-12-12T17:12:27.198Z,9.90
2018-12-12T17:14:54.579Z,9.67
2018-12-12T17:17:21.831Z,11.20
2018-12-12T17:19:49.018Z,10.80
2018-12-12T17:22:17.706Z,11.97
2018-12-12T17:24:45.890Z,10.13
2018-12-12T17:27:27.081Z,15.07
2018-12-12T17:29:54.415Z,12.60
2018-12-12T17:32:27.004Z,21.00
2018-12-12T17:58:28.475Z,10.50
2018-12-12T18:00:55.637Z,11.37
2018-12-12T18:40:40.483Z,9.87
2018-12-12T18:43:10.670Z,40.30
2018-12-12T18:45:41.451Z,17.00
2018-12-12T18:49:52.088Z,33.73
2018-12-12T18:52:29.673Z,16.70
2018-12-12T18:55:35.701Z,19.73
2018-12-12T19:00:48.281Z,20.33
2018-12-12T19:03:23.126Z,44.67
2018-12-12T19:05:50.341Z,15.27
2018-12-12T19:08:17.607Z,19.23
2018-12-12T19:16:30.913Z,15.03
2018-12-12T19:18:58.252Z,12.73
2018-12-12T19:21:26.473Z,14.60
2018-12-12T19:23:53.968Z,11.63
2018-12-12T19:26:21.303Z,13.77
2018-12-12T19:28:48.562Z,11.90
2018-12-12T19:31:15.736Z,12.27
2018-12-12T19:33:42.985Z,13.40
2018-12-12T19:36:11.377Z,19.37
2018-12-12T19:38:38.699Z,14.40
2018-12-12T19:41:06.094Z,15.10
2018-12-12T19:43:33.300Z,14.67
2018-12-12T19:46:01.275Z,13.57
2018-12-12T19:48:28.690Z,13.13
2018-12-12T19:50:56.111Z,14.23
2018-12-12T19:53:23.506Z,13.60
2018-12-12T19:55:50.817Z,14.97
2018-12-12T19:58:18.226Z,13.43
2018-12-12T20:00:45.898Z,12.07
2018-12-12T20:03:14.228Z,17.93
2018-12-12T20:05:41.812Z,13.70
2018-12-12T20:08:14.665Z,12.13
2018-12-12T20:10:42.511Z,11.47
2018-12-12T20:13:11.486Z,16.70
2018-12-12T20:15:48.516Z,27.93
2018-12-12T20:18:17.938Z,26.53
2018-12-12T20:20:45.287Z,14.63
2018-12-12T20:23:12.574Z,14.40
2018-12-12T20:25:40.067Z,17.50
2018-12-12T20:28:07.306Z,16.80
2018-12-12T20:30:35.445Z,16.70
2018-12-12T20:33:03.262Z,15.87
2018-12-12T20:35:31.054Z,17.37
2018-12-12T20:37:58.285Z,28.33
2018-12-12T20:40:25.766Z,26.50
2018-12-12T20:42:53.349Z,14.30
2018-12-12T20:45:21.559Z,17.77
2018-12-12T20:47:55.285Z,18.13
2018-12-12T20:50:23.843Z,12.93
2018-12-12T20:52:55.576Z,14.23
2018-12-12T20:55:27.343Z,18.03
2018-12-12T20:57:57.153Z,14.27
2018-12-12T21:00:24.626Z,13.60
2018-12-12T21:02:55.577Z,13.23
2018-12-12T21:05:22.803Z,12.57
2018-12-12T21:07:56.096Z,14.03
2018-12-12T21:10:24.221Z,13.17
2018-12-12T21:12:51.393Z,12.53
2018-12-12T21:15:18.470Z,13.47
2018-12-12T21:17:47.644Z,17.97
2018-12-12T21:20:15.569Z,13.70
2018-12-12T21:22:42.664Z,12.83
2018-12-12T21:25:10.401Z,13.97
2018-12-12T21:27:37.522Z,13.27
2018-12-12T21:30:04.779Z,13.43
2018-12-12T21:32:34.781Z,21.80
2018-12-12T21:35:01.914Z,13.07
2018-12-12T21:37:29.042Z,13.67
2018-12-12T21:40:03.042Z,11.70
2018-12-12T21:42:31.396Z,11.33
2018-12-12T21:44:59.609Z,12.33
2018-12-12T21:47:26.669Z,10.70
2018-12-12T21:49:54.679Z,11.93
2018-12-12T21:52:21.672Z,11.37
2018-12-12T21:54:48.718Z,12.10
2018-12-12T21:57:49.935Z,25.27
2018-12-12T22:00:17.917Z,14.53
2018-12-12T22:02:45.182Z,13.33
2018-12-12T22:05:12.643Z,16.93
2018-12-12T22:07:41.929Z,15.83
2018-12-12T22:10:11.851Z,20.60
2018-12-12T22:12:39.802Z,20.33
2018-12-12T22:18:09.709Z,11.37
2018-12-12T22:20:42.800Z,18.57
2018-12-12T22:23:11.765Z,16.37
2018-12-12T22:25:39.700Z,11.80
2018-12-12T22:28:18.004Z,11.03
2018-12-12T22:31:17.112Z,9.17
2018-12-12T22:37:17.924Z,12.67
2018-12-12T22:40:06.018Z,12.03
2018-12-12T22:42:40.602Z,14.63
2018-12-12T22:45:10.204Z,14.43
2018-12-12T23:31:57.997Z,11.93
2018-12-12T23:34:28.272Z,10.10
2018-12-12T23:37:01.838Z,10.63
2018-12-12T23:39:33.279Z,10.03
2018-12-12T23:42:08.018Z,9.87
